Time,TemperatureF,DewpointF,PressureIn,WindDirection,WindDirectionDegrees,WindSpeedMPH,WindSpeedGustMPH,Humidity,HourlyPrecipIn,Conditions,Clouds,dailyrainin,SoftwareType,DateUTC
2014-01-04 00:03:00,56.0,32.0,29.57,North,356,0.0,-999.0,40,-99.99,,,0.00,weatherlink.com 1.10,2014-01-04 07:03:00,
2014-01-04 00:18:00,55.3,32.0,29.56,North,359,0.0,-999.0,41,-99.99,,,0.00,weatherlink.com 1.10,2014-01-04 07:18:00,
2014-01-04 00:33:00,55.9,32.0,29.56,North,359,0.0,-999.0,40,-99.99,,,0.00,weatherlink.com 1.10,2014-01-04 07:33:00,
2014-01-04 00:48:00,55.7,31.0,29.56,North,357,0.0,-999.0,39,-99.99,,,0.00,weatherlink.com 1.10,2014-01-04 07:48:00,
2014-01-04 01:03:00,55.6,31.0,29.55,North,357,0.0,-999.0,39,-99.99,,,0.00,weatherlink.com 1.10,2014-01-04 08:03:00,
2014-01-04 01:18:00,55.9,30.0,29.55,North,359,0.0,-999.0,37,-99.99,,,0.00,weatherlink.com 1.10,2014-01-04 08:18:00,
2014-01-04 01:33:00,55.4,31.0,29.55,North,359,0.0,-999.0,40,-99.99,,,0.00,weatherlink.com 1.10,2014-01-04 08:33:00,
2014-01-04 01:48:00,55.4,30.0,29.55,North,359,0.0,-999.0,38,-99.99,,,0.00,weatherlink.com 1.10,2014-01-04 08:48:00,
2014-01-04 02:03:00,55.1,31.0,29.55,North,359,0.0,-999.0,40,-99.99,,,0.00,weatherlink.com 1.10,2014-01-04 09:03:00,
2014-01-04 02:18:00,54.5,32.0,29.55,North,359,0.0,-999.0,42,-99.99,,,0.00,weatherlink.com 1.10,2014-01-04 09:18:00,
2014-01-04 02:33:00,55.0,32.0,29.55,North,359,0.0,-999.0,42,-99.99,,,0.00,weatherlink.com 1.10,2014-01-04 09:33:00,
2014-01-04 02:48:00,55.3,30.0,29.54,North,359,0.0,-999.0,38,-99.99,,,0.00,weatherlink.com 1.10,2014-01-04 09:48:00,
2014-01-04 03:03:00,55.4,28.0,29.54,North,359,0.0,-999.0,35,-99.99,,,0.00,weatherlink.com 1.10,2014-01-04 10:03:00,
2014-01-04 03:18:00,55.7,30.0,29.54,North,357,0.0,-999.0,37,-99.99,,,0.00,weatherlink.com 1.10,2014-01-04 10:18:00,
2014-01-04 03:33:00,55.9,29.0,29.54,North,357,0.0,-999.0,36,-99.99,,,0.00,weatherlink.com 1.10,2014-01-04 10:33:00,
2014-01-04 03:48:00,56.0,30.0,29.54,North,357,0.0,-999.0,37,-99.99,,,0.00,weatherlink.com 1.10,2014-01-04 10:48:00,
2014-01-04 04:03:00,55.9,29.0,29.54,North,359,0.0,-999.0,36,-99.99,,,0.00,weatherlink.com 1.10,2014-01-04 11:03:00,
2014-01-04 04:18:00,56.0,30.0,29.54,North,359,0.0,-999.0,37,-99.99,,,0.00,weatherlink.com 1.10,2014-01-04 11:18:00,
2014-01-04 04:33:00,55.4,34.0,29.54,North,359,0.0,-999.0,45,-99.99,,,0.00,weatherlink.com 1.10,2014-01-04 11:33:00,
2014-01-04 04:48:00,54.4,34.0,29.54,North,359,0.0,-999.0,47,-99.99,,,0.00,weatherlink.com 1.10,2014-01-04 11:48:00,
2014-01-04 05:03:00,54.1,34.0,29.54,North,359,0.0,-999.0,46,-99.99,,,0.00,weatherlink.com 1.10,2014-01-04 12:03:00,
2014-01-04 05:18:00,54.4,31.0,29.55,North,359,0.0,-999.0,41,-99.99,,,0.00,weatherlink.com 1.10,2014-01-04 12:18:00,
2014-01-04 05:34:00,54.7,30.0,29.54,North,359,0.0,-999.0,39,-99.99,,,0.00,weatherlink.com 1.10,2014-01-04 12:34:00,
2014-01-04 05:49:00,55.1,30.0,29.54,North,359,0.0,-999.0,39,-99.99,,,0.00,weatherlink.com 1.10,2014-01-04 12:49:00,
2014-01-04 06:04:00,55.9,29.0,29.54,North,359,0.0,-999.0,36,-99.99,,,0.00,weatherlink.com 1.10,2014-01-04 13:04:00,
2014-01-04 06:19:00,56.2,29.0,29.54,North,357,0.0,-999.0,36,-99.99,,,0.00,weatherlink.com 1.10,2014-01-04 13:19:00,
2014-01-04 06:34:00,56.2,31.0,29.54,North,357,0.0,-999.0,39,-99.99,,,0.00,weatherlink.com 1.10,2014-01-04 13:34:00,
2014-01-04 06:49:00,55.6,34.0,29.54,North,357,0.0,-999.0,44,-99.99,,,0.00,weatherlink.com 1.10,2014-01-04 13:49:00,
2014-01-04 07:04:00,55.3,33.0,29.55,North,357,0.0,-999.0,43,-99.99,,,0.00,weatherlink.com 1.10,2014-01-04 14:04:00,
2014-01-04 07:19:00,55.1,33.0,29.55,North,357,0.0,-999.0,43,-99.99,,,0.00,weatherlink.com 1.10,2014-01-04 14:19:00,
2014-01-04 07:34:00,55.3,32.0,29.55,North,359,0.0,-999.0,42,-99.99,,,0.00,weatherlink.com 1.10,2014-01-04 14:34:00,
2014-01-04 07:49:00,55.3,34.0,29.56,North,359,0.0,-999.0,44,-99.99,,,0.00,weatherlink.com 1.10,2014-01-04 14:49:00,
2014-01-04 08:04:00,55.0,33.0,29.56,North,359,0.0,-999.0,44,-99.99,,,0.00,weatherlink.com 1.10,2014-01-04 15:04:00,
2014-01-04 08:19:00,54.8,35.0,29.57,North,359,0.0,-999.0,47,-99.99,,,0.00,weatherlink.com 1.10,2014-01-04 15:19:00,
2014-01-04 08:34:00,55.3,34.0,29.57,North,359,0.0,-999.0,45,-99.99,,,0.00,weatherlink.com 1.10,2014-01-04 15:34:00,
2014-01-04 08:49:00,55.7,35.0,29.57,North,359,0.0,-999.0,46,-99.99,,,0.00,weatherlink.com 1.10,2014-01-04 15:49:00,
2014-01-04 09:04:00,56.3,34.0,29.58,North,359,0.0,-999.0,44,-99.99,,,0.00,weatherlink.com 1.10,2014-01-04 16:04:00,
2014-01-04 09:18:00,57.2,33.0,29.59,North,359,0.0,-999.0,40,-99.99,,,0.00,weatherlink.com 1.10,2014-01-04 16:18:00,
2014-01-04 09:33:00,58.0,35.0,29.59,North,357,0.0,-999.0,42,-99.99,,,0.00,weatherlink.com 1.10,2014-01-04 16:33:00,
2014-01-04 11:20:00,65.8,32.0,29.60,North,359,1.0,-999.0,28,-99.99,,,0.00,weatherlink.com 1.10,2014-01-04 18:20:00,
2014-01-04 17:51:00,67.1,33.0,29.56,North,359,0.0,-999.0,28,-99.99,,,0.00,weatherlink.com 1.10,2014-01-05 00:51:00,
2014-01-04 18:04:00,65.2,35.0,29.56,WSW,248,0.0,-999.0,33,-99.99,,,0.00,weatherlink.com 1.10,2014-01-05 01:04:00,
2014-01-04 18:19:00,63.4,35.0,29.57,North,359,0.0,-999.0,35,-99.99,,,0.00,weatherlink.com 1.10,2014-01-05 01:19:00,
2014-01-04 18:34:00,62.6,34.0,29.57,NW,325,0.0,-999.0,35,-99.99,,,0.00,weatherlink.com 1.10,2014-01-05 01:34:00,
2014-01-04 18:49:00,62.3,35.0,29.57,North,359,0.0,-999.0,36,-99.99,,,0.00,weatherlink.com 1.10,2014-01-05 01:49:00,
2014-01-04 19:04:00,61.3,35.0,29.57,North,357,0.0,-999.0,38,-99.99,,,0.00,weatherlink.com 1.10,2014-01-05 02:04:00,
2014-01-04 19:19:00,60.4,36.0,29.57,North,359,0.0,-999.0,40,-99.99,,,0.00,weatherlink.com 1.10,2014-01-05 02:19:00,
2014-01-04 19:34:00,59.9,35.0,29.58,North,359,0.0,-999.0,40,-99.99,,,0.00,weatherlink.com 1.10,2014-01-05 02:34:00,
2014-01-04 19:49:00,58.9,37.0,29.59,North,359,0.0,-999.0,44,-99.99,,,0.00,weatherlink.com 1.10,2014-01-05 02:49:00,
2014-01-04 20:04:00,58.1,35.0,29.59,North,359,0.0,-999.0,43,-99.99,,,0.00,weatherlink.com 1.10,2014-01-05 03:04:00,
2014-01-04 20:19:00,57.5,36.0,29.61,North,359,0.0,-999.0,44,-99.99,,,0.00,weatherlink.com 1.10,2014-01-05 03:19:00,
2014-01-04 20:34:00,56.7,36.0,29.61,North,359,0.0,-999.0,47,-99.99,,,0.00,weatherlink.com 1.10,2014-01-05 03:34:00,
2014-01-04 20:49:00,55.9,36.0,29.62,North,359,0.0,-999.0,48,-99.99,,,0.00,weatherlink.com 1.10,2014-01-05 03:49:00,
2014-01-04 21:04:00,55.7,34.0,29.62,North,359,0.0,-999.0,45,-99.99,,,0.00,weatherlink.com 1.10,2014-01-05 04:04:00,
2014-01-04 21:19:00,56.0,34.0,29.63,North,359,0.0,-999.0,43,-99.99,,,0.00,weatherlink.com 1.10,2014-01-05 04:19:00,
2014-01-04 21:34:00,56.7,34.0,29.63,North,359,0.0,-999.0,42,-99.99,,,0.00,weatherlink.com 1.10,2014-01-05 04:34:00,
2014-01-04 21:49:00,56.7,33.0,29.63,North,357,0.0,-999.0,41,-99.99,,,0.00,weatherlink.com 1.10,2014-01-05 04:49:00,
2014-01-04 22:04:00,56.5,33.0,29.63,North,357,0.0,-999.0,42,-99.99,,,0.00,weatherlink.com 1.10,2014-01-05 05:04:00,